createdAt,value
2018-08-20T00:00:18.973Z,23.30
2018-08-20T00:02:47.843Z,23.20
2018-08-20T00:05:16.717Z,23.10
2018-08-20T00:07:45.569Z,23.10
2018-08-20T00:10:14.418Z,22.90
2018-08-20T00:12:43.265Z,22.50
2018-08-20T00:15:12.131Z,22.40
2018-08-20T00:17:40.968Z,22.50
2018-08-20T00:20:09.807Z,22.50
2018-08-20T00:22:38.650Z,22.40
2018-08-20T00:25:07.487Z,22.20
2018-08-20T00:27:36.332Z,22.40
2018-08-20T00:30:05.173Z,22.30
2018-08-20T00:32:34.022Z,22.40
2018-08-20T00:35:02.866Z,22.40
2018-08-20T00:37:32.444Z,22.30
2018-08-20T00:40:01.279Z,22.40
2018-08-20T00:42:30.132Z,22.40
2018-08-20T00:44:58.982Z,22.10
2018-08-20T00:47:27.832Z,22.20
2018-08-20T00:49:57.412Z,22.10
2018-08-20T00:52:26.258Z,22.20
2018-08-20T00:54:55.097Z,22.30
2018-08-20T00:57:23.954Z,22.30
2018-08-20T00:59:52.805Z,22.40
2018-08-20T01:02:21.656Z,22.30
2018-08-20T01:04:50.499Z,22.20
2018-08-20T01:07:19.347Z,22.20
2018-08-20T01:09:48.196Z,22.10
2018-08-20T01:12:17.050Z,22.10
2018-08-20T01:14:45.915Z,22.10
2018-08-20T01:17:15.506Z,22.00
2018-08-20T01:19:44.352Z,22.00
2018-08-20T01:22:13.200Z,22.00
2018-08-20T01:24:42.037Z,22.00
2018-08-20T01:27:10.867Z,22.00
2018-08-20T01:29:39.724Z,21.90
2018-08-20T01:32:08.567Z,22.00
2018-08-20T01:34:38.145Z,22.00
2018-08-20T01:37:06.986Z,22.00
2018-08-20T01:39:35.830Z,22.00
2018-08-20T01:42:04.666Z,21.90
2018-08-20T01:44:33.503Z,21.90
2018-08-20T01:47:02.351Z,21.90
2018-08-20T01:49:31.199Z,21.80
2018-08-20T01:52:00.778Z,21.70
2018-08-20T01:54:29.619Z,21.60
2018-08-20T01:56:58.462Z,21.50
2018-08-20T02:01:56.753Z,21.60
2018-08-20T02:04:25.611Z,21.70
2018-08-20T02:06:54.457Z,21.50
2018-08-20T02:09:24.041Z,21.40
2018-08-20T02:11:52.888Z,21.60
2018-08-20T02:14:21.725Z,21.50
2018-08-20T02:16:50.576Z,21.50
2018-08-20T02:19:19.410Z,21.50
2018-08-20T02:21:48.261Z,21.50
2018-08-20T02:24:17.104Z,21.30
2018-08-20T02:26:46.694Z,21.20
2018-08-20T02:29:15.539Z,21.20
2018-08-20T02:31:44.377Z,21.20
2018-08-20T02:34:13.214Z,21.20
2018-08-20T02:36:42.069Z,21.10
2018-08-20T02:39:11.659Z,21.00
2018-08-20T02:41:40.520Z,21.00
2018-08-20T02:44:09.354Z,21.00
2018-08-20T02:46:38.935Z,20.80
2018-08-20T02:49:07.785Z,20.80
2018-08-20T02:51:36.626Z,20.70
2018-08-20T02:54:05.468Z,20.70
2018-08-20T02:56:34.306Z,20.70
2018-08-20T02:59:03.896Z,20.70
2018-08-20T03:01:32.760Z,20.80
2018-08-20T03:04:01.621Z,20.80
2018-08-20T03:06:30.492Z,20.70
2018-08-20T03:08:59.365Z,20.80
2018-08-20T03:11:28.236Z,20.70
2018-08-20T03:13:57.098Z,20.80
2018-08-20T03:16:26.002Z,20.70
2018-08-20T03:18:55.566Z,20.60
2018-08-20T03:21:24.409Z,20.50
2018-08-20T03:23:53.249Z,20.50
2018-08-20T03:26:22.084Z,20.50
2018-08-20T03:28:50.931Z,20.50
2018-08-20T03:31:19.767Z,20.50
2018-08-20T03:33:48.599Z,20.50
2018-08-20T03:36:17.459Z,20.40
2018-08-20T03:38:46.304Z,20.40
2018-08-20T03:41:15.158Z,20.40
2018-08-20T03:43:44.041Z,20.40
2018-08-20T03:46:12.883Z,20.40
2018-08-20T03:48:41.735Z,20.30
2018-08-20T03:51:10.582Z,20.20
2018-08-20T03:53:39.442Z,20.20
2018-08-20T03:56:08.268Z,20.20
2018-08-20T03:58:37.858Z,20.10
2018-08-20T04:01:06.701Z,20.10
2018-08-20T04:03:35.543Z,20.20
2018-08-20T04:06:05.146Z,20.20
2018-08-20T04:08:33.983Z,20.20
2018-08-20T04:11:02.825Z,20.20
2018-08-20T04:13:32.422Z,20.20
2018-08-20T04:16:01.275Z,20.40
2018-08-20T04:18:30.113Z,20.40
2018-08-20T04:20:58.961Z,20.30
2018-08-20T04:23:27.819Z,20.40
2018-08-20T04:25:56.676Z,20.30
2018-08-20T04:28:25.530Z,20.20
2018-08-20T04:30:54.372Z,20.30
2018-08-20T04:33:23.207Z,20.20
2018-08-20T04:35:52.045Z,20.30
2018-08-20T04:38:20.882Z,20.20
2018-08-20T04:40:49.732Z,20.30
2018-08-20T04:43:18.569Z,20.30
2018-08-20T04:45:47.410Z,20.20
2018-08-20T04:48:16.245Z,20.20
2018-08-20T04:50:45.179Z,20.20
2018-08-20T04:53:13.925Z,20.20
2018-08-20T04:55:42.765Z,20.20
2018-08-20T04:58:11.612Z,20.20
2018-08-20T05:00:40.455Z,20.20
2018-08-20T05:03:09.302Z,20.20
2018-08-20T05:05:38.145Z,20.10
2018-08-20T05:08:06.989Z,20.10
2018-08-20T05:10:36.568Z,20.10
2018-08-20T05:13:05.405Z,20.20
2018-08-20T05:15:34.252Z,20.20
2018-08-20T05:18:03.095Z,20.20
2018-08-20T05:20:31.934Z,20.30
2018-08-20T05:23:00.793Z,20.40
2018-08-20T05:25:29.621Z,20.40
2018-08-20T05:27:59.208Z,20.30
2018-08-20T05:30:28.042Z,20.50
2018-08-20T05:32:56.885Z,20.50
2018-08-20T05:35:25.726Z,20.50
2018-08-20T05:37:54.570Z,20.50
2018-08-20T05:40:23.419Z,20.70
2018-08-20T05:42:52.262Z,20.70
2018-08-20T05:45:21.102Z,20.70
2018-08-20T05:47:49.956Z,20.80
2018-08-20T05:50:19.545Z,20.80
2018-08-20T05:52:48.378Z,20.80
2018-08-20T05:55:17.266Z,20.90
2018-08-20T05:57:46.090Z,20.90
2018-08-20T06:00:14.924Z,21.00
2018-08-20T06:02:43.771Z,20.90
2018-08-20T06:05:12.614Z,20.90
2018-08-20T06:07:41.456Z,21.00
2018-08-20T06:10:10.298Z,21.00
2018-08-20T06:12:39.138Z,21.10
2018-08-20T06:15:08.011Z,21.10
2018-08-20T06:17:36.832Z,21.00
2018-08-20T06:20:05.691Z,21.20
2018-08-20T06:22:34.591Z,21.20
2018-08-20T06:25:04.215Z,21.30
2018-08-20T06:27:33.728Z,21.30
2018-08-20T06:30:02.560Z,21.50
2018-08-20T06:32:32.178Z,21.40
2018-08-20T06:35:01.037Z,21.40
2018-08-20T06:37:29.896Z,21.50
2018-08-20T06:39:58.737Z,21.50
2018-08-20T06:42:27.588Z,21.50
2018-08-20T06:44:56.431Z,21.60
2018-08-20T06:47:26.017Z,21.60
2018-08-20T06:49:54.879Z,21.70
2018-08-20T06:52:23.725Z,21.80
2018-08-20T06:54:52.569Z,21.90
2018-08-20T06:57:21.412Z,21.90
2018-08-20T06:59:51.016Z,21.90
2018-08-20T07:02:19.859Z,22.10
2018-08-20T07:04:48.696Z,22.20
2018-08-20T07:07:17.550Z,22.20
2018-08-20T07:09:46.397Z,22.30
2018-08-20T07:12:15.984Z,22.30
2018-08-20T07:14:44.823Z,22.50
2018-08-20T07:17:13.671Z,22.50
2018-08-20T07:19:42.529Z,22.50
2018-08-20T07:22:11.360Z,22.60
2018-08-20T07:24:40.205Z,22.70
2018-08-20T07:27:09.050Z,22.80
2018-08-20T07:32:19.316Z,22.90
2018-08-20T07:34:48.155Z,23.00
2018-08-20T07:37:16.989Z,23.00
2018-08-20T07:39:46.583Z,23.10
2018-08-20T07:42:15.457Z,23.20
2018-08-20T07:44:44.278Z,23.10
2018-08-20T07:47:13.115Z,23.20
2018-08-20T07:49:41.967Z,23.30
2018-08-20T07:52:10.802Z,23.40
2018-08-20T07:54:39.644Z,23.50
2018-08-20T07:57:08.498Z,23.50
2018-08-20T07:59:37.322Z,23.60
2018-08-20T08:02:06.911Z,23.60
2018-08-20T08:04:36.572Z,23.70
2018-08-20T08:07:05.353Z,23.70
2018-08-20T08:09:34.196Z,23.90
2018-08-20T08:12:03.077Z,24.00
2018-08-20T08:14:31.939Z,24.10
2018-08-20T08:17:00.773Z,24.20
2018-08-20T08:19:29.612Z,24.30
2018-08-20T08:21:58.447Z,24.30
2018-08-20T08:24:27.301Z,24.40
2018-08-20T08:26:56.129Z,24.50
2018-08-20T08:29:24.995Z,24.50
2018-08-20T08:31:53.831Z,24.70
2018-08-20T08:34:22.695Z,24.70
2018-08-20T08:36:51.526Z,24.70
2018-08-20T08:39:20.370Z,24.70
2018-08-20T08:41:49.217Z,24.70
2018-08-20T08:44:18.048Z,24.90
2018-08-20T08:46:46.896Z,24.90
2018-08-20T08:49:15.734Z,25.00
2018-08-20T08:51:44.586Z,25.10
2018-08-20T08:54:13.429Z,25.10
2018-08-20T08:56:42.304Z,25.10
2018-08-20T08:59:11.894Z,25.20
2018-08-20T09:01:40.741Z,25.30
2018-08-20T09:04:09.583Z,25.10
2018-08-20T09:06:38.454Z,25.20
2018-08-20T09:09:07.311Z,25.40
2018-08-20T09:11:36.346Z,25.40
2018-08-20T09:14:05.151Z,25.50
2018-08-20T09:16:34.743Z,25.60
2018-08-20T09:19:03.608Z,25.80
2018-08-20T09:21:32.441Z,25.90
2018-08-20T09:24:01.316Z,26.10
2018-08-20T09:26:30.151Z,26.00
2018-08-20T09:28:58.991Z,26.00
2018-08-20T09:31:27.853Z,25.90
2018-08-20T09:33:56.686Z,26.00
2018-08-20T09:36:25.549Z,26.20
2018-08-20T09:38:54.386Z,25.90
2018-08-20T09:41:23.229Z,25.90
2018-08-20T09:43:52.179Z,25.80
2018-08-20T09:46:20.944Z,25.90
2018-08-20T09:48:49.794Z,26.20
2018-08-20T09:51:18.645Z,26.40
2018-08-20T09:53:47.496Z,26.50
2018-08-20T09:56:16.350Z,26.60
2018-08-20T09:58:45.187Z,26.70
2018-08-20T10:01:14.029Z,26.80
2018-08-20T10:03:42.876Z,26.90
2018-08-20T10:06:11.727Z,26.90
2018-08-20T10:08:40.558Z,26.90
2018-08-20T10:11:10.156Z,26.90
2018-08-20T10:16:08.434Z,27.10
2018-08-20T10:18:37.303Z,27.30
2018-08-20T10:21:06.138Z,27.50
2018-08-20T10:23:35.708Z,27.70
2018-08-20T10:26:04.542Z,27.90
2018-08-20T10:28:33.466Z,27.90
2018-08-20T10:31:02.306Z,27.90
2018-08-20T10:33:31.138Z,27.90
2018-08-20T10:35:59.968Z,27.70
2018-08-20T10:38:28.832Z,27.60
2018-08-20T10:40:57.672Z,27.70
2018-08-20T10:43:27.286Z,27.70
2018-08-20T10:48:33.040Z,28.10
2018-08-20T10:51:02.693Z,28.20
2018-08-20T10:53:31.473Z,28.10
2018-08-20T10:56:00.319Z,27.90
2018-08-20T10:58:29.180Z,27.70
2018-08-20T11:00:58.034Z,27.70
2018-08-20T11:03:26.886Z,27.60
2018-08-20T11:05:55.727Z,27.50
2018-08-20T11:08:24.567Z,27.50
2018-08-20T11:10:53.548Z,27.40
2018-08-20T11:13:22.312Z,27.40
2018-08-20T11:15:51.162Z,27.30
2018-08-20T11:18:20.781Z,27.30
2018-08-20T11:20:50.347Z,27.30
2018-08-20T11:23:19.188Z,27.50
2018-08-20T11:25:48.038Z,27.50
2018-08-20T11:28:16.878Z,27.40
2018-08-20T11:30:45.726Z,27.50
2018-08-20T11:33:15.314Z,27.40
2018-08-20T11:35:44.152Z,27.40
2018-08-20T11:38:12.987Z,27.40
2018-08-20T11:40:41.830Z,27.30
2018-08-20T11:43:10.681Z,27.20
2018-08-20T11:45:39.520Z,27.10
2018-08-20T11:48:08.363Z,27.10
2018-08-20T11:50:37.216Z,27.10
2018-08-20T11:53:06.054Z,27.20
2018-08-20T11:55:35.639Z,27.20
2018-08-20T11:58:04.482Z,27.10
2018-08-20T12:00:33.326Z,27.00
2018-08-20T12:03:02.909Z,26.90
2018-08-20T12:05:31.750Z,27.00
2018-08-20T12:08:00.580Z,27.10
2018-08-20T12:10:29.426Z,27.10
2018-08-20T12:12:58.266Z,27.20
2018-08-20T12:15:27.111Z,27.20
2018-08-20T12:17:55.946Z,27.30
2018-08-20T12:20:24.777Z,27.30
2018-08-20T12:22:53.624Z,27.40
2018-08-20T12:25:22.464Z,27.50
2018-08-20T12:27:51.313Z,27.60
2018-08-20T12:30:20.175Z,27.60
2018-08-20T12:32:49.023Z,27.70
2018-08-20T12:35:17.902Z,27.70
2018-08-20T12:37:46.738Z,27.80
2018-08-20T12:40:15.640Z,27.70
2018-08-20T12:42:44.435Z,27.80
2018-08-20T12:45:13.275Z,27.80
2018-08-20T12:47:42.860Z,27.70
2018-08-20T12:50:11.732Z,27.70
2018-08-20T12:52:40.557Z,27.80
2018-08-20T12:55:10.154Z,28.20
2018-08-20T12:57:39.014Z,28.60
2018-08-20T13:00:07.853Z,28.70
2018-08-20T13:02:36.685Z,28.30
2018-08-20T13:05:05.526Z,28.40
2018-08-20T13:07:34.385Z,28.40
2018-08-20T13:10:03.216Z,28.30
2018-08-20T13:12:32.068Z,28.30
2018-08-20T13:15:01.686Z,28.20
2018-08-20T13:17:30.524Z,28.40
2018-08-20T13:19:59.378Z,28.50
2018-08-20T13:22:28.227Z,28.60
2018-08-20T13:24:57.081Z,28.80
2018-08-20T13:27:25.960Z,28.90
2018-08-20T13:29:54.787Z,28.90
2018-08-20T13:32:23.642Z,28.80
2018-08-20T13:34:52.488Z,28.90
2018-08-20T13:37:21.387Z,29.00
2018-08-20T13:39:50.191Z,29.00
2018-08-20T13:42:19.050Z,29.00
2018-08-20T13:44:47.904Z,29.00
2018-08-20T13:47:16.732Z,29.00
2018-08-20T13:49:45.570Z,28.90
2018-08-20T13:52:14.403Z,28.80
2018-08-20T13:54:43.257Z,29.00
2018-08-20T13:57:12.086Z,29.20
2018-08-20T13:59:40.970Z,29.60
2018-08-20T14:02:09.777Z,29.40
2018-08-20T14:04:38.617Z,29.30
2018-08-20T14:07:07.452Z,29.30
2018-08-20T14:09:37.047Z,29.20
2018-08-20T14:12:05.888Z,29.70
2018-08-20T14:14:34.751Z,30.10
2018-08-20T14:17:04.331Z,29.80
2018-08-20T14:19:33.199Z,29.80
2018-08-20T14:22:02.053Z,30.00
2018-08-20T14:24:30.911Z,30.30
2018-08-20T14:27:00.035Z,30.30
2018-08-20T14:29:28.628Z,29.80
2018-08-20T14:31:57.495Z,30.10
2018-08-20T14:34:26.346Z,30.10
2018-08-20T14:36:55.213Z,30.20
2018-08-20T14:39:24.032Z,30.20
2018-08-20T14:41:52.884Z,30.50
2018-08-20T14:44:21.718Z,30.70
2018-08-20T14:46:50.563Z,30.60
2018-08-20T14:49:19.411Z,30.40
2018-08-20T14:51:49.038Z,30.60
2018-08-20T14:54:17.884Z,30.50
2018-08-20T14:56:46.724Z,30.10
2018-08-20T14:59:15.584Z,29.80
2018-08-20T15:01:44.440Z,30.00
2018-08-20T15:04:13.295Z,30.50
2018-08-20T15:06:42.143Z,30.80
2018-08-20T15:09:11.090Z,30.80
2018-08-20T15:11:39.839Z,31.00
2018-08-20T15:14:09.461Z,31.20
2018-08-20T15:16:38.306Z,31.20
2018-08-20T15:19:07.156Z,31.20
2018-08-20T15:21:36.003Z,31.10
2018-08-20T15:24:04.853Z,31.30
2018-08-20T15:26:33.688Z,31.30
2018-08-20T15:29:03.263Z,31.20
2018-08-20T15:31:32.133Z,31.00
2018-08-20T15:34:00.975Z,30.50
2018-08-20T15:36:29.814Z,30.80
2018-08-20T15:38:58.645Z,30.50
2018-08-20T15:41:28.248Z,30.00
2018-08-20T15:43:57.192Z,29.80
2018-08-20T15:46:25.944Z,29.90
2018-08-20T15:48:55.534Z,29.70
2018-08-20T15:51:24.390Z,30.00
2018-08-20T15:53:53.229Z,30.20
2018-08-20T15:56:22.817Z,30.40
2018-08-20T16:01:21.121Z,30.30
2018-08-20T16:03:50.721Z,29.90
2018-08-20T16:06:19.855Z,30.00
2018-08-20T16:08:48.454Z,30.10
2018-08-20T16:11:17.292Z,30.00
2018-08-20T16:13:46.144Z,30.00
2018-08-20T16:16:14.994Z,29.90
2018-08-20T16:18:43.854Z,29.90
2018-08-20T16:21:12.741Z,30.00
2018-08-20T16:23:41.585Z,29.90
2018-08-20T16:26:10.476Z,30.20
2018-08-20T16:28:39.307Z,29.80
2018-08-20T16:31:08.150Z,29.70
2018-08-20T16:33:36.996Z,29.40
2018-08-20T16:36:05.837Z,29.40
2018-08-20T16:38:34.689Z,29.60
2018-08-20T16:41:04.294Z,29.60
2018-08-20T16:43:34.068Z,29.70
2018-08-20T16:46:02.890Z,29.70
2018-08-20T16:48:31.742Z,29.90
2018-08-20T16:51:00.607Z,30.10
2018-08-20T16:53:29.428Z,29.90
2018-08-20T16:55:58.269Z,30.10
2018-08-20T16:58:27.111Z,30.00
2018-08-20T17:00:55.958Z,29.90
2018-08-20T17:03:24.838Z,29.80
2018-08-20T17:05:53.693Z,29.70
2018-08-20T17:08:22.535Z,29.60
2018-08-20T17:10:51.379Z,29.30
2018-08-20T17:13:20.232Z,29.30
2018-08-20T17:15:49.090Z,29.30
2018-08-20T17:18:17.962Z,29.30
2018-08-20T17:20:47.567Z,29.20
2018-08-20T17:23:16.409Z,29.10
2018-08-20T17:25:45.261Z,29.10
2018-08-20T17:28:14.133Z,29.00
2018-08-20T17:30:43.727Z,28.80
2018-08-20T17:33:12.569Z,28.70
2018-08-20T17:35:41.414Z,28.50
2018-08-20T17:38:11.009Z,28.40
2018-08-20T17:40:39.861Z,28.30
2018-08-20T17:43:08.696Z,28.20
2018-08-20T17:45:37.749Z,28.20
2018-08-20T17:48:07.247Z,28.20
2018-08-20T17:50:36.063Z,28.10
2018-08-20T17:53:06.753Z,28.10
2018-08-20T17:55:35.594Z,28.00
2018-08-20T17:58:04.455Z,28.00
2018-08-20T18:00:33.291Z,27.90
2018-08-20T18:03:02.158Z,27.90
2018-08-20T18:05:30.992Z,27.90
2018-08-20T18:07:59.833Z,27.80
2018-08-20T18:10:28.998Z,27.70
2018-08-20T18:12:57.753Z,27.60
2018-08-20T18:15:26.602Z,27.50
2018-08-20T18:17:55.451Z,27.40
2018-08-20T18:20:24.305Z,27.30
2018-08-20T18:22:53.151Z,27.30
2018-08-20T18:25:21.996Z,27.30
2018-08-20T18:27:51.584Z,27.20
2018-08-20T18:30:20.489Z,27.10
2018-08-20T18:32:49.275Z,27.00
2018-08-20T18:35:18.135Z,26.90
2018-08-20T18:37:47.050Z,26.90
2018-08-20T18:40:15.966Z,26.90
2018-08-20T18:42:44.826Z,26.80
2018-08-20T18:47:43.124Z,26.70
2018-08-20T18:50:11.999Z,26.70
2018-08-20T18:52:40.864Z,26.70
2018-08-20T18:55:09.706Z,26.70
2018-08-20T18:57:38.554Z,26.50
2018-08-20T19:00:07.434Z,26.40
2018-08-20T19:02:36.288Z,26.20
2018-08-20T19:05:05.144Z,26.20
2018-08-20T19:07:33.999Z,26.20
2018-08-20T19:10:02.852Z,26.20
2018-08-20T19:12:32.481Z,26.20
2018-08-20T19:15:01.348Z,26.30
2018-08-20T19:17:30.956Z,26.20
2018-08-20T19:19:59.814Z,26.30
2018-08-20T19:22:28.701Z,26.30
2018-08-20T19:24:57.500Z,26.20
2018-08-20T19:27:26.365Z,26.20
2018-08-20T19:29:55.209Z,26.10
2018-08-20T19:32:24.808Z,26.00
2018-08-20T19:34:54.428Z,25.90
2018-08-20T19:37:23.278Z,26.00
2018-08-20T19:39:52.119Z,25.90
2018-08-20T19:42:21.022Z,25.70
2018-08-20T19:44:49.838Z,25.70
2018-08-20T19:47:18.685Z,25.60
2018-08-20T19:49:47.537Z,25.50
2018-08-20T19:52:16.394Z,25.30
2018-08-20T19:54:45.225Z,25.30
2018-08-20T19:57:14.126Z,25.10
2018-08-20T19:59:42.933Z,25.10
2018-08-20T20:02:11.804Z,25.10
2018-08-20T20:04:40.679Z,25.10
2018-08-20T20:07:09.557Z,25.10
2018-08-20T20:09:38.408Z,25.00
2018-08-20T20:12:07.281Z,24.90
2018-08-20T20:14:36.130Z,24.90
2018-08-20T20:17:04.971Z,24.90
2018-08-20T20:19:33.819Z,24.80
2018-08-20T20:22:02.679Z,24.70
2018-08-20T20:24:31.555Z,24.70
2018-08-20T20:27:00.412Z,24.70
2018-08-20T20:29:29.295Z,24.70
2018-08-20T20:31:58.891Z,24.70
2018-08-20T20:34:27.731Z,24.60
2018-08-20T20:36:56.582Z,24.60
2018-08-20T20:39:25.457Z,24.70
2018-08-20T20:41:54.306Z,24.60
2018-08-20T20:44:23.902Z,24.60
2018-08-20T20:46:53.508Z,24.50
2018-08-20T20:49:22.383Z,24.60
2018-08-20T20:51:51.211Z,24.40
2018-08-20T20:54:20.822Z,24.50
2018-08-20T20:56:50.403Z,24.40
2018-08-20T20:59:19.256Z,24.40
2018-08-20T21:01:48.129Z,24.30
2018-08-20T21:04:17.698Z,24.30
2018-08-20T21:06:46.598Z,24.30
2018-08-20T21:09:15.449Z,24.30
2018-08-20T21:11:44.291Z,24.30
2018-08-20T21:14:13.252Z,24.30
2018-08-20T21:19:11.505Z,24.30
2018-08-20T21:21:40.343Z,24.30
2018-08-20T21:24:09.210Z,24.20
2018-08-20T21:26:38.050Z,24.20
2018-08-20T21:29:06.911Z,24.20
2018-08-20T21:31:35.754Z,24.20
2018-08-20T21:34:04.616Z,24.20
2018-08-20T21:36:33.460Z,24.20
2018-08-20T21:39:02.335Z,24.20
2018-08-20T21:41:31.195Z,24.20
2018-08-20T21:44:00.062Z,24.10
2018-08-20T21:46:29.662Z,24.00
2018-08-20T21:48:59.266Z,24.10
2018-08-20T21:51:28.110Z,24.00
2018-08-20T21:53:56.961Z,24.10
2018-08-20T21:56:25.816Z,24.00
2018-08-20T21:58:54.665Z,24.10
2018-08-20T22:01:23.590Z,24.10
2018-08-20T22:03:52.366Z,24.10
2018-08-20T22:06:21.210Z,23.90
2018-08-20T22:08:50.052Z,23.80
2018-08-20T22:11:18.895Z,23.80
2018-08-20T22:13:47.751Z,23.80
2018-08-20T22:16:16.602Z,23.70
2018-08-20T22:18:45.441Z,23.70
2018-08-20T22:21:14.289Z,23.60
2018-08-20T22:23:43.130Z,23.60
2018-08-20T22:26:11.978Z,23.60
2018-08-20T22:28:40.820Z,23.50
2018-08-20T22:31:10.407Z,23.50
2018-08-20T22:33:39.269Z,23.70
2018-08-20T22:36:08.105Z,23.80
2018-08-20T22:38:36.945Z,23.80
2018-08-20T22:41:05.792Z,23.70
2018-08-20T22:43:34.650Z,23.70
2018-08-20T22:46:04.235Z,23.70
2018-08-20T22:48:33.069Z,23.80
2018-08-20T22:51:02.655Z,23.80
2018-08-20T22:53:31.498Z,23.90
2018-08-20T22:56:05.281Z,23.90
2018-08-20T22:58:34.123Z,24.00
2018-08-20T23:01:02.959Z,23.90
2018-08-20T23:03:31.797Z,23.90
2018-08-20T23:06:00.653Z,23.90
2018-08-20T23:08:29.491Z,24.00
2018-08-20T23:10:58.335Z,23.90
2018-08-20T23:13:27.177Z,23.90
2018-08-20T23:15:56.768Z,24.00
2018-08-20T23:18:26.360Z,23.90
2018-08-20T23:20:55.201Z,23.90
2018-08-20T23:23:24.060Z,23.90
2018-08-20T23:25:52.902Z,23.80
2018-08-20T23:28:21.737Z,23.70
2018-08-20T23:30:50.597Z,23.70
2018-08-20T23:33:19.432Z,23.60
2018-08-20T23:35:48.287Z,23.50
2018-08-20T23:38:17.129Z,23.50
2018-08-20T23:40:46.708Z,23.50
2018-08-20T23:43:15.564Z,23.50
2018-08-20T23:45:44.411Z,23.40
2018-08-20T23:48:14.001Z,23.40
2018-08-20T23:50:42.865Z,23.30
2018-08-20T23:53:11.673Z,23.20
2018-08-20T23:58:09.956Z,23.20
